Time;durP1;ratioP1;P1;durP2;ratioP2;P2;SDS_P1;SDS_P2;PMS_P1;PMS_P2;Temp;Humidity;BMP_temperature;BMP_pressure;BME280_temperature;BME280_humidity;BME280_pressure;Samples;Min_cycle;Max_cycle;Signal;HPM_P1;HPM_P2
2022/03/16 00:02:21;;;;;;;14.35;9.77;;;;;;;4.96;96.14;101371.16;5005659;28;20053;-72
2022/03/16 00:04:56;;;;;;;16.70;11.07;;;;;;;4.88;96.08;101369.84;5003331;28;20054;-71
2022/03/16 00:07:22;;;;;;;15.63;10.40;;;;;;;4.84;96.04;101364.94;5009227;28;20038;-72
2022/03/16 00:09:48;;;;;;;15.68;9.93;;;;;;;4.78;96.14;101370.53;5008954;28;20127;-72
2022/03/16 00:12:15;;;;;;;12.38;8.73;;;;;;;4.71;96.15;101370.06;5008151;28;20072;-72
2022/03/16 00:14:42;;;;;;;12.75;8.77;;;;;;;4.65;96.29;101363.41;5008707;28;20458;-72
2022/03/16 00:17:08;;;;;;;17.13;11.70;;;;;;;4.63;96.35;101356.59;5006991;28;20042;-72
2022/03/16 00:19:34;;;;;;;14.82;10.77;;;;;;;4.58;96.32;101350.78;5003391;28;20065;-72
2022/03/16 00:22:01;;;;;;;16.50;11.18;;;;;;;4.52;96.28;101353.78;5008555;28;20465;-72
2022/03/16 00:24:27;;;;;;;19.23;12.70;;;;;;;4.47;96.53;101347.03;5009008;28;20041;-72
2022/03/16 00:26:52;;;;;;;18.95;12.35;;;;;;;4.41;96.29;101352.66;5007737;28;20026;-72
2022/03/16 00:29:18;;;;;;;19.10;12.18;;;;;;;4.41;96.34;101354.41;5008678;28;20420;-72
2022/03/16 00:31:43;;;;;;;20.55;13.98;;;;;;;4.37;96.37;101348.50;4994018;28;20523;-72
2022/03/16 00:34:08;;;;;;;20.13;13.85;;;;;;;4.36;96.25;101354.69;5007422;28;20113;-72
2022/03/16 00:36:34;;;;;;;20.33;14.00;;;;;;;4.33;96.32;101347.00;5014385;28;20522;-72
2022/03/16 00:38:59;;;;;;;21.55;14.02;;;;;;;4.26;96.23;101354.38;5014814;28;20552;-72
2022/03/16 00:41:24;;;;;;;22.27;13.90;;;;;;;4.22;96.46;101352.91;5015522;28;20034;-72
2022/03/16 00:43:50;;;;;;;16.92;10.90;;;;;;;4.16;96.32;101355.03;5014461;28;20482;-72
2022/03/16 00:46:15;;;;;;;26.30;16.38;;;;;;;4.11;96.40;101357.91;5014226;28;20053;-72
2022/03/16 00:48:40;;;;;;;20.20;13.65;;;;;;;4.07;96.46;101364.25;5017333;28;20117;-72
2022/03/16 00:51:08;;;;;;;19.50;12.52;;;;;;;4.05;96.56;101360.88;5006114;28;20138;-72
2022/03/16 00:53:34;;;;;;;16.38;10.93;;;;;;;4.02;96.32;101368.91;5014978;28;20080;-72
2022/03/16 00:56:01;;;;;;;14.05;9.27;;;;;;;3.96;96.44;101370.13;5014827;28;20050;-72
2022/03/16 00:58:27;;;;;;;11.63;8.38;;;;;;;3.91;96.14;101366.06;5008113;28;20037;-72
2022/03/16 01:00:52;;;;;;;15.20;10.07;;;;;;;3.85;96.24;101366.44;5012172;28;20038;-72
2022/03/16 01:03:18;;;;;;;12.70;8.25;;;;;;;3.79;96.14;101367.59;5014002;28;20057;-72
2022/03/16 01:05:43;;;;;;;13.50;8.65;;;;;;;3.76;96.20;101371.22;5015015;28;20048;-72
2022/03/16 01:08:08;;;;;;;12.05;8.10;;;;;;;3.71;96.20;101367.19;5014710;28;20056;-72
2022/03/16 01:10:34;;;;;;;14.07;9.75;;;;;;;3.65;96.34;101368.41;5015446;28;20521;-72
2022/03/16 01:12:59;;;;;;;17.17;10.85;;;;;;;3.61;96.48;101370.34;5016302;28;20183;-71
2022/03/16 01:15:24;;;;;;;16.45;10.30;;;;;;;3.56;96.56;101367.13;5017024;28;20513;-72
2022/03/16 01:17:50;;;;;;;15.10;10.23;;;;;;;3.54;96.45;101366.38;5010545;28;20403;-72
2022/03/16 01:20:16;;;;;;;19.02;12.63;;;;;;;3.56;96.72;101376.75;5015075;28;20034;-72
2022/03/16 01:22:42;;;;;;;23.50;15.18;;;;;;;3.60;96.78;101363.44;5013107;28;20037;-72
2022/03/16 01:25:07;;;;;;;24.73;16.80;;;;;;;3.60;97.34;101360.81;5013104;28;20030;-72
2022/03/16 01:27:32;;;;;;;29.35;19.35;;;;;;;3.60;98.00;101366.03;5014981;28;20036;-72
2022/03/16 01:29:58;;;;;;;25.80;16.08;;;;;;;3.64;97.87;101363.25;5012568;28;20041;-72
2022/03/16 01:32:23;;;;;;;30.70;20.13;;;;;;;3.59;98.89;101353.03;5014073;28;20092;-72
2022/03/16 01:34:48;;;;;;;29.52;19.13;;;;;;;3.61;99.20;101353.81;5014184;28;20050;-72
2022/03/16 01:37:14;;;;;;;23.13;15.07;;;;;;;3.64;99.15;101353.63;5012787;28;20506;-72
2022/03/16 01:39:39;;;;;;;20.80;13.32;;;;;;;3.66;98.71;101351.78;5014399;28;20359;-72
2022/03/16 01:42:04;;;;;;;23.17;14.60;;;;;;;3.67;98.71;101368.28;5014090;28;20040;-72
2022/03/16 01:44:48;;;;;;;22.55;14.85;;;;;;;3.70;98.90;101365.53;5012836;28;20509;-72
2022/03/16 01:47:15;;;;;;;24.55;14.73;;;;;;;3.72;98.85;101364.50;5010919;28;20033;-72
2022/03/16 01:49:41;;;;;;;24.98;15.80;;;;;;;3.77;98.45;101369.50;5011293;28;20233;-72
2022/03/16 01:52:09;;;;;;;22.05;14.30;;;;;;;3.78;98.59;101372.00;5008874;28;20096;-72
2022/03/16 01:54:35;;;;;;;19.52;12.82;;;;;;;3.81;98.33;101369.22;5011556;28;20295;-72
2022/03/16 01:57:01;;;;;;;18.10;12.48;;;;;;;3.81;98.24;101373.59;5008893;28;20034;-72
2022/03/16 01:59:27;;;;;;;17.70;11.55;;;;;;;3.83;98.24;101376.97;5007872;28;20033;-72
2022/03/16 02:01:52;;;;;;;18.92;12.70;;;;;;;3.86;98.34;101374.16;5017257;28;20036;-72
2022/03/16 02:04:17;;;;;;;17.45;11.27;;;;;;;3.90;97.79;101377.47;5008261;28;20117;-72
2022/03/16 02:06:43;;;;;;;17.38;11.75;;;;;;;3.89;97.84;101374.00;5006267;28;20092;-72
2022/03/16 02:09:08;;;;;;;15.60;10.23;;;;;;;3.90;97.72;101374.84;5006882;28;20037;-72
2022/03/16 02:11:34;;;;;;;14.70;9.52;;;;;;;3.90;97.69;101374.84;5011412;28;20033;-72
2022/03/16 02:13:59;;;;;;;17.10;11.75;;;;;;;3.86;97.37;101375.94;5002999;28;20042;-71
2022/03/16 02:16:24;;;;;;;14.20;9.68;;;;;;;3.78;97.14;101374.59;5009759;28;20503;-72
2022/03/16 02:18:50;;;;;;;14.70;9.55;;;;;;;3.69;97.17;101367.28;5011072;28;20057;-72
2022/03/16 02:21:16;;;;;;;40.53;17.95;;;;;;;3.65;97.29;101363.19;5010359;28;20053;-72
2022/03/16 02:23:42;;;;;;;45.13;18.98;;;;;;;3.62;97.21;101360.72;5009384;28;20129;-72
2022/03/16 02:26:10;;;;;;;43.40;18.52;;;;;;;3.57;97.25;101371.44;5003872;28;20547;-72
2022/03/16 02:28:36;;;;;;;40.70;17.50;;;;;;;3.56;97.57;101369.75;5005541;28;20041;-72
2022/03/16 02:31:01;;;;;;;29.42;15.70;;;;;;;3.56;97.72;101361.91;5004905;28;20050;-72
2022/03/16 02:33:27;;;;;;;24.05;15.38;;;;;;;3.58;97.62;101370.50;5010020;28;20030;-71
2022/03/16 02:35:52;;;;;;;29.13;17.60;;;;;;;3.55;97.52;101370.69;5006298;28;20038;-72
2022/03/16 02:38:18;;;;;;;22.23;14.15;;;;;;;3.51;97.67;101365.72;5008448;28;20465;-72
2022/03/16 02:40:43;;;;;;;19.80;13.00;;;;;;;3.48;97.54;101382.44;5004296;28;20033;-72
2022/03/16 02:43:08;;;;;;;16.17;10.82;;;;;;;3.40;97.39;101377.59;5008759;28;20026;-72
2022/03/16 02:45:34;;;;;;;16.83;10.35;;;;;;;3.32;97.31;101369.34;5011155;28;20116;-72
2022/03/16 02:47:59;;;;;;;14.80;9.13;;;;;;;3.27;97.32;101375.75;5010721;28;20030;-72
2022/03/16 02:50:25;;;;;;;18.23;10.90;;;;;;;3.23;97.67;101369.00;5009634;28;21740;-72
2022/03/16 02:52:51;;;;;;;23.02;14.13;;;;;;;3.22;97.85;101375.16;5010713;28;20372;-72
2022/03/16 02:55:16;;;;;;;23.60;14.38;;;;;;;3.25;98.06;101365.38;5009656;28;20073;-72
2022/03/16 02:57:42;;;;;;;19.48;13.15;;;;;;;3.27;98.00;101375.75;5009211;28;20042;-72
2022/03/16 03:00:09;;;;;;;21.60;13.60;;;;;;;3.29;98.08;101382.59;5008117;28;20033;-72
2022/03/16 03:02:35;;;;;;;21.05;13.73;;;;;;;3.29;98.24;101377.38;5010163;28;20026;-72
2022/03/16 03:05:01;;;;;;;18.20;12.10;;;;;;;3.26;98.03;101372.28;5010418;28;20034;-72
2022/03/16 03:07:26;;;;;;;16.10;10.23;;;;;;;3.23;98.08;101379.47;5010138;28;20411;-72
2022/03/16 03:09:52;;;;;;;18.83;11.23;;;;;;;3.20;97.87;101375.25;5009921;28;20482;-72
2022/03/16 03:12:18;;;;;;;15.48;9.63;;;;;;;3.14;97.65;101371.19;5002093;28;20038;-72
2022/03/16 03:14:43;;;;;;;20.15;11.35;;;;;;;3.12;98.11;101367.84;5003237;28;20440;-72
2022/03/16 03:17:09;;;;;;;18.00;11.05;;;;;;;3.13;98.00;101379.13;5009314;28;20067;-71
2022/03/16 03:19:34;;;;;;;19.95;13.02;;;;;;;3.13;97.92;101369.50;5010386;28;20052;-72
2022/03/16 03:21:59;;;;;;;26.17;17.70;;;;;;;3.13;98.67;101366.88;5006411;28;20050;-72
2022/03/16 03:24:24;;;;;;;19.50;13.93;;;;;;;3.14;98.39;101372.94;5007480;28;20034;-72
2022/03/16 03:26:50;;;;;;;19.98;13.40;;;;;;;3.13;98.33;101372.13;5009126;28;20030;-72
2022/03/16 03:29:16;;;;;;;21.58;14.45;;;;;;;3.11;98.20;101370.50;5003884;28;20050;-72
2022/03/16 03:31:42;;;;;;;17.73;11.68;;;;;;;3.11;98.26;101383.59;5009143;28;20030;-72
2022/03/16 03:34:07;;;;;;;15.57;10.18;;;;;;;3.09;98.08;101383.66;5007253;28;20165;-72
2022/03/16 03:36:33;;;;;;;13.93;9.35;;;;;;;3.03;97.99;101384.00;5007225;28;20126;-72
2022/03/16 03:38:59;;;;;;;13.77;9.35;;;;;;;3.01;98.02;101383.22;5009545;28;20049;-72
2022/03/16 03:41:24;;;;;;;11.82;8.38;;;;;;;2.97;97.94;101379.09;5004578;28;20030;-72
2022/03/16 03:43:50;;;;;;;13.07;8.70;;;;;;;2.95;97.93;101375.72;5006865;28;20129;-72
2022/03/16 03:46:15;;;;;;;15.27;9.68;;;;;;;2.90;97.95;101375.94;5006454;28;20026;-72
2022/03/16 03:48:40;;;;;;;12.93;8.93;;;;;;;2.87;97.75;101383.97;5008615;28;20038;-72
2022/03/16 03:51:06;;;;;;;13.23;8.43;;;;;;;2.85;97.75;101390.19;5009347;28;20052;-72
2022/03/16 03:53:32;;;;;;;12.00;7.90;;;;;;;2.80;97.92;101381.75;5009549;28;20050;-72
2022/03/16 03:55:57;;;;;;;11.38;7.45;;;;;;;2.76;97.85;101375.84;5008508;28;20581;-72
2022/03/16 03:58:23;;;;;;;11.38;7.85;;;;;;;2.71;97.93;101381.28;5009003;28;20077;-72
2022/03/16 04:00:49;;;;;;;10.32;7.00;;;;;;;2.68;97.83;101384.09;5008265;28;20414;-72
2022/03/16 04:03:15;;;;;;;12.27;8.38;;;;;;;2.65;97.85;101379.03;5005199;28;20173;-72
2022/03/16 04:05:40;;;;;;;11.88;7.60;;;;;;;2.65;97.89;101381.63;5008648;28;20111;-72
2022/03/16 04:08:06;;;;;;;12.50;8.43;;;;;;;2.66;97.73;101387.69;5008333;28;20129;-72
2022/03/16 04:10:31;;;;;;;15.02;9.70;;;;;;;2.65;97.89;101388.63;5006948;28;20052;-72
2022/03/16 04:12:57;;;;;;;11.15;7.68;;;;;;;2.64;97.71;101387.75;5008800;28;20036;-72
2022/03/16 04:15:22;;;;;;;11.60;7.75;;;;;;;2.62;97.77;101396.59;5007809;28;20049;-72
2022/03/16 04:17:47;;;;;;;11.68;7.50;;;;;;;2.63;97.79;101393.94;5003953;28;20065;-72
2022/03/16 04:20:13;;;;;;;11.95;7.53;;;;;;;2.64;97.68;101397.38;5000343;28;20104;-72
2022/03/16 04:22:38;;;;;;;14.93;10.00;;;;;;;2.67;97.98;101390.25;5004674;28;20461;-72
2022/03/16 04:25:05;;;;;;;13.20;8.90;;;;;;;2.73;97.99;101399.50;5007506;28;20100;-72
2022/03/16 04:27:30;;;;;;;12.50;8.70;;;;;;;2.79;98.12;101403.56;5007603;28;20349;-72
2022/03/16 04:29:56;;;;;;;16.70;10.25;;;;;;;2.87;98.23;101398.78;5006888;28;20088;-72
2022/03/16 04:32:21;;;;;;;17.17;10.98;;;;;;;2.96;98.67;101398.31;5008214;28;20046;-72
2022/03/16 04:34:47;;;;;;;14.93;9.73;;;;;;;3.04;98.38;101401.34;5008557;28;20034;-72
2022/03/16 04:37:12;;;;;;;14.40;9.25;;;;;;;3.10;98.40;101401.03;5003360;28;20462;-72
2022/03/16 04:39:38;;;;;;;12.93;8.52;;;;;;;3.15;98.18;101399.00;5002329;28;20033;-72
2022/03/16 04:42:04;;;;;;;10.68;7.05;;;;;;;3.18;98.15;101401.47;5009138;28;20041;-72
2022/03/16 04:44:29;;;;;;;11.00;7.05;;;;;;;3.22;98.56;101396.06;5008956;28;20038;-72
2022/03/16 04:46:54;;;;;;;9.85;6.70;;;;;;;3.27;98.35;101391.44;5008921;28;20445;-72
2022/03/16 04:49:20;;;;;;;10.30;6.70;;;;;;;3.29;98.14;101400.88;5010267;28;20065;-72
2022/03/16 04:51:45;;;;;;;9.15;6.40;;;;;;;3.30;98.14;101399.94;5009209;28;20073;-72
2022/03/16 04:54:10;;;;;;;11.30;7.60;;;;;;;3.32;98.20;101403.31;5003583;28;20125;-72
2022/03/16 04:56:36;;;;;;;11.55;8.38;;;;;;;3.34;98.13;101404.09;5007994;28;20125;-72
2022/03/16 04:59:02;;;;;;;11.90;8.07;;;;;;;3.38;98.34;101404.75;5006587;28;20034;-72
2022/03/16 05:01:28;;;;;;;10.40;7.55;;;;;;;3.42;98.11;101405.44;5009386;28;20049;-72
2022/03/16 05:03:53;;;;;;;11.13;7.45;;;;;;;3.46;98.03;101402.59;5008943;28;20033;-72
2022/03/16 05:06:20;;;;;;;11.27;7.30;;;;;;;3.51;97.91;101403.16;5003833;28;20041;-72
2022/03/16 05:08:47;;;;;;;9.70;6.50;;;;;;;3.53;98.05;101400.47;5009182;28;20100;-72
2022/03/16 05:11:13;;;;;;;12.15;7.70;;;;;;;3.55;97.94;101407.31;5008518;28;20495;-72
2022/03/16 05:13:38;;;;;;;11.40;7.47;;;;;;;3.55;97.76;101402.06;5007961;28;20096;-72
2022/03/16 05:16:06;;;;;;;11.85;7.35;;;;;;;3.57;97.96;101409.81;5008440;28;20076;-72
2022/03/16 05:18:31;;;;;;;14.00;8.88;;;;;;;3.53;97.76;101406.53;5007248;28;20117;-72
2022/03/16 05:20:57;;;;;;;17.90;11.93;;;;;;;3.53;97.81;101416.16;4999366;28;20144;-72
2022/03/16 05:23:22;;;;;;;14.55;9.70;;;;;;;3.50;97.52;101418.94;5011257;28;20048;-72
2022/03/16 05:25:47;;;;;;;12.43;7.93;;;;;;;3.46;97.63;101420.03;5010138;28;20034;-72
2022/03/16 05:28:13;;;;;;;17.65;11.70;;;;;;;3.40;97.63;101418.59;5008424;28;20264;-72
2022/03/16 05:30:38;;;;;;;13.70;9.57;;;;;;;3.37;97.70;101410.91;5005927;28;20117;-72
2022/03/16 05:33:04;;;;;;;13.43;9.05;;;;;;;3.32;97.72;101423.41;5011312;28;20034;-72
2022/03/16 05:35:30;;;;;;;18.08;11.05;;;;;;;3.31;97.71;101429.53;5009585;28;20092;-72
2022/03/16 05:37:57;;;;;;;20.15;13.18;;;;;;;3.28;97.65;101422.72;5012734;28;20076;-72
2022/03/16 05:40:22;;;;;;;17.85;10.98;;;;;;;3.26;97.69;101419.34;5012578;28;20128;-72
2022/03/16 05:42:48;;;;;;;13.60;9.43;;;;;;;3.23;97.61;101416.06;5009979;28;20085;-72
2022/03/16 05:45:13;;;;;;;16.20;10.35;;;;;;;3.19;97.67;101415.34;5012221;28;20333;-72
2022/03/16 05:47:39;;;;;;;15.98;10.55;;;;;;;3.17;97.68;101418.06;5012442;28;20029;-72
2022/03/16 05:50:05;;;;;;;14.60;9.60;;;;;;;3.16;97.61;101416.38;5011170;28;20084;-72
2022/03/16 05:52:31;;;;;;;16.02;10.07;;;;;;;3.17;97.83;101414.59;5011289;28;20042;-72
2022/03/16 05:54:58;;;;;;;13.30;8.43;;;;;;;3.18;97.78;101417.13;5011560;28;20030;-72
2022/03/16 05:57:24;;;;;;;14.43;9.55;;;;;;;3.16;97.66;101416.38;5009888;28;20042;-72
2022/03/16 05:59:50;;;;;;;15.07;10.13;;;;;;;3.16;97.79;101418.97;5010674;28;20106;-72
2022/03/16 06:02:16;;;;;;;16.75;11.05;;;;;;;3.16;98.15;101415.53;5007489;28;20079;-72
2022/03/16 06:04:45;;;;;;;21.33;12.70;;;;;;;3.15;98.40;101411.25;5011300;28;20117;-72
2022/03/16 06:07:12;;;;;;;15.10;10.45;;;;;;;3.19;98.49;101411.00;5009274;28;20037;-72
2022/03/16 06:09:38;;;;;;;19.65;13.30;;;;;;;3.26;98.64;101410.66;5010941;28;20030;-72
2022/03/16 06:12:04;;;;;;;20.00;13.52;;;;;;;3.30;98.91;101418.25;5009549;28;20042;-72
2022/03/16 06:14:30;;;;;;;19.98;12.50;;;;;;;3.38;99.26;101423.06;5005345;28;20510;-72
2022/03/16 06:16:56;;;;;;;15.27;10.55;;;;;;;3.50;99.37;101425.00;5010638;28;20042;-72
2022/03/16 06:19:22;;;;;;;15.63;10.52;;;;;;;3.61;99.34;101430.50;5010076;28;20516;-72
2022/03/16 06:21:48;;;;;;;19.48;13.15;;;;;;;3.71;99.48;101429.97;5010333;28;20056;-72
2022/03/16 06:24:14;;;;;;;16.48;11.07;;;;;;;3.81;99.45;101439.00;5010404;28;20026;-72
2022/03/16 06:26:40;;;;;;;13.88;9.35;;;;;;;3.90;99.60;101432.41;5010298;28;20034;-72
2022/03/16 06:29:06;;;;;;;14.63;9.95;;;;;;;3.99;99.45;101437.97;5009751;28;20422;-72
2022/03/16 06:31:32;;;;;;;16.17;10.68;;;;;;;4.11;99.36;101438.22;5006757;28;20038;-72
2022/03/16 06:33:58;;;;;;;14.25;9.90;;;;;;;4.19;99.43;101438.59;5010071;28;20064;-72
2022/03/16 06:36:23;;;;;;;16.75;10.32;;;;;;;4.30;99.25;101441.44;5007462;28;20042;-72
2022/03/16 06:38:49;;;;;;;12.75;9.00;;;;;;;4.41;99.14;101431.19;5008187;28;20030;-72
2022/03/16 06:41:14;;;;;;;12.32;8.13;;;;;;;4.53;99.13;101421.78;5010086;28;20030;-72
2022/03/16 06:43:40;;;;;;;10.98;7.68;;;;;;;4.64;99.23;101423.75;5010392;28;20419;-72
2022/03/16 06:46:05;;;;;;;10.48;7.47;;;;;;;4.77;99.33;101421.25;5008944;28;20038;-72
2022/03/16 06:48:31;;;;;;;14.77;10.10;;;;;;;4.87;99.57;101428.47;5009295;28;20113;-72
2022/03/16 06:50:57;;;;;;;15.45;11.25;;;;;;;4.96;99.59;101429.69;5007237;28;20437;-72
2022/03/16 06:53:23;;;;;;;17.27;11.75;;;;;;;5.11;99.50;101433.97;5010522;28;20033;-72
2022/03/16 06:55:48;;;;;;;13.90;9.75;;;;;;;5.23;99.70;101436.78;5009020;28;20034;-72
2022/03/16 06:58:13;;;;;;;12.55;9.00;;;;;;;5.33;99.45;101443.97;5001938;28;20088;-73
2022/03/16 07:00:39;;;;;;;16.38;11.65;;;;;;;5.45;99.54;101436.28;5005347;28;20081;-72
2022/03/16 07:03:08;;;;;;;13.90;9.77;;;;;;;5.61;99.66;101442.25;4997007;28;20042;-72
2022/03/16 07:05:38;;;;;;;13.43;9.35;;;;;;;5.83;99.63;101441.72;4997897;28;20323;-72
2022/03/16 07:08:07;;;;;;;11.70;8.13;;;;;;;6.10;99.91;101447.03;5004092;28;20564;-72
2022/03/16 07:10:33;;;;;;;12.68;8.90;;;;;;;6.39;99.78;101454.78;5007349;28;20354;-72
2022/03/16 07:12:59;;;;;;;16.48;11.57;;;;;;;6.62;99.95;101458.47;5007125;28;20073;-72
2022/03/16 07:15:26;;;;;;;17.40;12.13;;;;;;;6.80;99.47;101449.34;5008273;28;20061;-72
2022/03/16 07:17:51;;;;;;;18.50;12.93;;;;;;;7.01;99.20;101441.78;5003956;28;20143;-72
2022/03/16 07:20:17;;;;;;;16.33;11.20;;;;;;;7.17;98.78;101445.97;5007715;28;20501;-72
2022/03/16 07:22:42;;;;;;;13.63;10.27;;;;;;;7.27;98.66;101444.38;5004743;28;20410;-72
2022/03/16 07:25:09;;;;;;;14.55;11.18;;;;;;;7.34;97.36;101448.25;5009220;28;20034;-72
2022/03/16 07:27:37;;;;;;;16.23;12.43;;;;;;;7.32;95.48;101444.06;5003310;28;20056;-72
2022/03/16 07:30:07;;;;;;;19.67;12.88;;;;;;;7.42;95.34;101448.56;5000885;28;20502;-72
2022/03/16 07:32:35;;;;;;;23.38;14.82;;;;;;;7.52;94.62;101453.16;5008738;28;20395;-73
2022/03/16 07:35:00;;;;;;;19.45;13.05;;;;;;;7.66;94.89;101453.03;5008715;28;20042;-72
2022/03/16 07:37:25;;;;;;;19.70;13.75;;;;;;;7.80;93.97;101450.22;5009409;28;20103;-72
2022/03/16 07:39:51;;;;;;;16.02;12.27;;;;;;;7.94;93.99;101462.41;5009372;28;20037;-72
2022/03/16 07:42:17;;;;;;;15.73;11.98;;;;;;;8.12;93.55;101472.53;4997534;28;20046;-73
2022/03/16 07:44:42;;;;;;;16.75;12.27;;;;;;;;;;5004312;28;20038;-73
2022/03/16 07:47:07;;;;;;;12.07;9.50;;;;;;;;;;5006946;28;20517;-73
2022/03/16 07:49:35;;;;;;;13.95;10.60;;;;;;;8.97;nan;101467.09;5011148;28;20285;-73
2022/03/16 07:52:00;;;;;;;11.65;9.10;;;;;;;9.23;nan;101479.09;5007228;28;20040;-73
2022/03/16 07:54:26;;;;;;;12.75;9.55;;;;;;;9.68;nan;101479.06;5001656;28;20038;-73
2022/03/16 07:56:53;;;;;;;12.35;9.20;;;;;;;10.05;nan;101484.00;5003893;28;20212;-73
2022/03/16 07:59:18;;;;;;;11.23;8.85;;;;;;;9.93;nan;101488.47;5003606;28;20038;-72
2022/03/16 08:01:44;;;;;;;11.30;9.05;;;;;;;9.93;nan;101488.47;5008673;28;20033;-72
2022/03/16 08:04:09;;;;;;;11.38;9.00;;;;;;;9.86;nan;101489.94;5010258;28;20030;-73
2022/03/16 08:06:35;;;;;;;12.20;9.50;;;;;;;9.79;nan;101492.22;5008466;28;20034;-72
2022/03/16 08:09:00;;;;;;;9.82;8.40;;;;;;;9.85;nan;101492.72;5010025;28;20049;-73
2022/03/16 08:11:26;;;;;;;11.93;9.85;;;;;;;9.93;nan;101499.06;5009195;28;20204;-73
2022/03/16 08:13:51;;;;;;;10.63;8.60;;;;;;;10.06;nan;101498.06;5007446;28;20026;-73
2022/03/16 08:16:16;;;;;;;9.68;7.90;;;;;;;10.21;nan;101502.09;5007211;28;20117;-73
2022/03/16 08:18:42;;;;;;;10.82;8.60;;;;;;;10.23;nan;101502.81;5008962;28;20030;-73
2022/03/16 08:21:07;;;;;;;10.13;8.05;;;;;;;10.32;nan;101499.47;5008719;28;20065;-73
2022/03/16 08:23:33;;;;;;;9.27;7.78;;;;;;;10.40;nan;101499.66;5007743;28;20026;-73
2022/03/16 08:25:58;;;;;;;9.40;7.85;;;;;;;10.49;nan;101494.59;5004935;28;20037;-73
2022/03/16 08:28:24;;;;;;;11.65;9.07;;;;;;;10.61;nan;101493.56;5009262;28;20494;-73
2022/03/16 08:30:50;;;;;;;11.32;8.77;;;;;;;10.69;nan;101487.63;5008970;28;20070;-73
2022/03/16 08:33:17;;;;;;;11.32;9.50;;;;;;;10.76;nan;101494.91;5008793;28;20440;-73
2022/03/16 08:35:42;;;;;;;10.27;8.68;;;;;;;10.70;nan;101490.16;5009511;28;20038;-73
2022/03/16 08:38:08;;;;;;;10.90;9.35;;;;;;;10.52;nan;101491.69;5008393;28;20091;-73
2022/03/16 08:40:34;;;;;;;11.23;8.90;;;;;;;10.39;nan;101482.13;5008882;28;20052;-73
2022/03/16 08:42:59;;;;;;;10.35;8.23;;;;;;;10.39;nan;101482.13;5001468;28;20038;-73
2022/03/16 08:45:25;;;;;;;11.18;8.82;;;;;;;10.42;nan;101478.38;5006328;28;20031;-73
2022/03/16 08:47:50;;;;;;;10.57;8.73;;;;;;;10.33;nan;101473.84;5008444;28;20536;-73
2022/03/16 08:50:16;;;;;;;11.57;9.63;;;;;;;10.33;nan;101473.84;5005952;28;20057;-73
2022/03/16 08:52:41;;;;;;;12.70;8.73;;;;;;;10.52;nan;101473.16;5004639;28;20054;-73
2022/03/16 08:55:07;;;;;;;10.35;8.20;;;;;;;10.78;nan;101479.75;5008638;28;20041;-73
2022/03/16 08:57:33;;;;;;;10.02;8.15;;;;;;;11.05;nan;101468.59;5010936;28;20034;-73
2022/03/16 08:59:58;;;;;;;10.68;9.00;;;;;;;11.26;nan;101468.56;5012792;28;20085;-73
2022/03/16 09:02:23;;;;;;;10.68;8.40;;;;;;;11.43;nan;101468.91;5014797;28;20053;-73
2022/03/16 09:04:50;;;;;;;9.90;7.97;;;;;;;11.64;nan;101451.13;5015313;28;20038;-74
2022/03/16 09:07:16;;;;;;;9.70;8.05;;;;;;;12.30;nan;101453.19;5005507;28;20126;-74
2022/03/16 09:09:41;;;;;;;8.55;7.10;;;;;;;13.01;nan;101451.91;5014712;28;20121;-74
2022/03/16 09:12:11;;;;;;;10.15;8.77;;;;;;;13.41;nan;101457.94;5007529;28;20045;-74
2022/03/16 09:14:37;;;;;;;11.02;8.68;;;;;;;13.63;nan;101448.72;5012067;28;20124;-74
2022/03/16 09:17:02;;;;;;;7.47;6.68;;;;;;;13.84;nan;101451.13;5010715;28;20153;-74
2022/03/16 09:19:27;;;;;;;8.45;7.55;;;;;;;14.12;nan;101447.41;5012374;28;20040;-74
2022/03/16 09:21:53;;;;;;;9.80;8.63;;;;;;;13.84;nan;101451.94;5012471;28;20037;-74
2022/03/16 09:24:18;;;;;;;9.55;7.85;;;;;;;13.64;nan;101453.91;5011577;28;20482;-74
2022/03/16 09:26:45;;;;;;;9.05;7.57;;;;;;;13.79;nan;101444.44;5008769;28;20069;-74
2022/03/16 09:29:11;;;;;;;5.80;5.05;;;;;;;14.26;nan;101445.22;5010852;28;20038;-74
2022/03/16 09:31:40;;;;;;;9.05;7.53;;;;;;;14.53;nan;101433.63;5006797;28;20155;-75
2022/03/16 09:34:07;;;;;;;7.97;7.18;;;;;;;14.88;nan;101438.03;5011395;28;20442;-75
2022/03/16 09:36:37;;;;;;;7.07;5.70;;;;;;;15.36;nan;101431.25;5011174;28;20121;-75
2022/03/16 09:39:03;;;;;;;6.15;5.55;;;;;;;16.16;nan;101430.81;5001033;28;20042;-75
2022/03/16 09:41:29;;;;;;;6.25;5.65;;;;;;;16.79;nan;101423.94;5011513;28;20036;-75
2022/03/16 09:43:55;;;;;;;7.28;6.35;;;;;;;17.34;nan;101422.22;5012749;28;20223;-76
2022/03/16 09:46:31;;;;;;;6.65;5.88;;;;;;;17.68;nan;101413.84;5011285;28;20026;-76
2022/03/16 09:48:56;;;;;;;6.32;5.60;;;;;;;18.10;nan;101417.13;5014295;28;20108;-76
2022/03/16 09:51:22;;;;;;;6.95;5.90;;;;;;;18.14;nan;101410.38;5005496;28;20487;-76
2022/03/16 09:53:48;;;;;;;6.30;5.70;;;;;;;18.30;nan;101404.88;5013529;28;20065;-76
2022/03/16 09:56:13;;;;;;;7.40;6.60;;;;;;;18.54;nan;101406.50;5015322;28;20037;-76
2022/03/16 09:58:41;;;;;;;5.05;4.40;;;;;;;18.60;nan;101402.25;5018705;28;20120;-76
2022/03/16 10:01:06;;;;;;;6.25;5.20;;;;;;;19.04;nan;101406.81;5013836;28;20129;-75
2022/03/16 10:03:32;;;;;;;4.32;3.90;;;;;;;19.27;nan;101404.03;5014317;28;20113;-76
2022/03/16 10:05:58;;;;;;;5.65;5.05;;;;;;;19.50;nan;101398.53;5012513;28;20049;-75
2022/03/16 10:14:18;;;;;;;6.65;5.32;;;;;;;19.04;nan;101391.59;5013543;28;20045;-76
2022/03/16 10:19:51;;;;;;;5.18;4.60;;;;;;;19.13;nan;101386.94;5011694;28;20057;-75
2022/03/16 10:22:26;;;;;;;4.80;4.30;;;;;;;19.56;nan;101383.53;5011204;28;20402;-76
2022/03/16 10:25:00;;;;;;;5.15;4.43;;;;;;;19.46;nan;101383.81;5006310;28;20038;-76
2022/03/16 10:27:25;;;;;;;5.85;5.10;;;;;;;19.20;nan;101374.44;5010976;28;20038;-76
2022/03/16 10:29:51;;;;;;;6.18;5.57;;;;;;;19.23;nan;101375.91;5007772;28;20072;-76
2022/03/16 10:32:19;;;;;;;6.45;5.72;;;;;;;18.63;nan;101369.75;5008336;28;20042;-76
2022/03/16 10:34:55;;;;;;;5.35;4.70;;;;;;;18.50;nan;101372.25;5012830;28;20199;-76
2022/03/16 10:37:22;;;;;;;5.35;4.38;;;;;;;18.65;nan;101378.44;5009243;28;20084;-76
2022/03/16 10:39:50;;;;;;;5.13;4.63;;;;;;;19.43;nan;101363.59;5003812;28;20083;-76
2022/03/16 10:48:01;;;;;;;4.88;4.38;;;;;;;20.07;nan;101372.66;5011076;28;20125;-76
2022/03/16 10:50:26;;;;;;;5.45;4.75;;;;;;;19.71;nan;101369.06;5005555;28;20089;-76
2022/03/16 10:52:53;;;;;;;5.38;4.60;;;;;;;19.90;nan;101374.78;5002888;28;20054;-76
2022/03/16 10:55:22;;;;;;;6.25;5.28;;;;;;;20.26;nan;101372.03;5008960;28;20507;-76
2022/03/16 10:57:51;;;;;;;4.55;3.92;;;;;;;20.45;nan;101365.13;5004982;28;20100;-77
2022/03/16 11:00:17;;;;;;;6.90;5.13;;;;;;;20.82;nan;101367.66;5008318;28;20394;-76
2022/03/16 11:02:44;;;;;;;5.65;5.03;;;;;;;20.29;nan;101362.75;5008036;28;20061;-76
2022/03/16 11:05:10;;;;;;;5.28;4.78;;;;;;;20.36;nan;101361.75;4997048;28;20075;-77
2022/03/16 11:07:36;;;;;;;5.72;4.70;;;;;;;20.71;nan;101366.34;5010505;28;20034;-76
2022/03/16 11:10:04;;;;;;;5.35;4.85;;;;;;;20.60;nan;101358.84;5009524;28;20372;-76
2022/03/16 11:15:18;;;;;;;5.40;4.90;;;;;;;20.60;nan;101359.66;5003988;28;20088;-76
2022/03/16 11:17:44;;;;;;;5.60;5.00;;;;;;;20.60;nan;101358.84;5005161;28;20041;-76
2022/03/16 11:20:11;;;;;;;6.45;5.18;;;;;;;20.55;nan;101354.03;5006129;28;20042;-76
2022/03/16 11:25:54;;;;;;;5.43;4.82;;;;;;;20.92;nan;101339.34;5007449;28;20092;-76
2022/03/16 11:28:45;;;;;;;4.82;4.30;;;;;;;20.55;nan;101332.53;5001986;28;20033;-77
2022/03/16 11:31:13;;;;;;;5.03;4.53;;;;;;;20.25;nan;101334.59;5007824;28;20134;-76
2022/03/16 11:33:50;;;;;;;4.80;4.30;;;;;;;20.19;nan;101338.06;5009568;28;20060;-76
2022/03/16 11:36:40;;;;;;;5.65;4.70;;;;;;;20.31;nan;101336.53;5005474;28;20031;-76
2022/03/16 11:39:18;;;;;;;5.68;4.75;;;;;;;20.16;nan;101331.22;4993673;28;20046;-76
2022/03/16 11:41:49;;;;;;;5.45;4.70;;;;;;;19.79;nan;101322.47;5010920;28;20045;-76
2022/03/16 11:44:24;;;;;;;5.22;4.70;;;;;;;19.52;nan;101329.41;5009020;28;20125;-76